Time;durP1;ratioP1;P1;durP2;ratioP2;P2;SDS_P1;SDS_P2;PMS_P1;PMS_P2;Temp;Humidity;BMP_temperature;BMP_pressure;BME280_temperature;BME280_humidity;BME280_pressure;Samples;Min_cycle;Max_cycle;Signal;HPM_P1;HPM_P2
2023/07/19 00:01:51;;;;;;;4.53;1.90;;;;;;;17.30;100.00;100445.03;7686587;23;20190;-95
2023/07/19 00:04:53;;;;;;;2.92;1.70;;;;;;;17.31;100.00;100446.63;7712405;23;20027;-95
2023/07/19 00:07:56;;;;;;;3.47;1.90;;;;;;;17.35;100.00;100449.75;7739291;23;20027;-95
2023/07/19 00:10:58;;;;;;;4.03;1.98;;;;;;;17.35;100.00;100440.09;7738283;23;20030;-95
2023/07/19 00:14:05;;;;;;;3.25;1.70;;;;;;;17.32;100.00;100437.03;7739336;23;20024;-95
2023/07/19 00:17:08;;;;;;;3.92;1.90;;;;;;;17.48;100.00;100439.56;7712504;23;20484;-95
2023/07/19 00:20:10;;;;;;;3.28;2.15;;;;;;;17.32;100.00;100437.81;7712022;23;20020;-95
2023/07/19 00:23:12;;;;;;;3.88;1.88;;;;;;;17.29;100.00;100429.47;7711865;23;20020;-95
2023/07/19 00:26:15;;;;;;;3.42;1.65;;;;;;;17.70;100.00;100432.78;7738514;23;20031;-94
2023/07/19 00:29:18;;;;;;;2.28;1.65;;;;;;;17.35;100.00;100423.59;7712367;23;20746;-94
2023/07/19 00:32:20;;;;;;;2.53;1.70;;;;;;;17.54;100.00;100415.38;7738818;23;20098;-95
2023/07/19 00:35:21;;;;;;;2.47;1.73;;;;;;;17.13;100.00;100420.69;7687210;23;20560;-95
2023/07/19 00:38:23;;;;;;;2.20;1.73;;;;;;;17.14;100.00;100408.41;7686782;23;20028;-95
2023/07/19 00:41:25;;;;;;;3.38;2.13;;;;;;;17.13;100.00;100404.19;7737400;23;20024;-96
2023/07/19 00:44:27;;;;;;;3.00;2.00;;;;;;;17.07;100.00;100404.84;7711859;23;20020;-95
2023/07/19 00:47:30;;;;;;;3.72;1.65;;;;;;;17.03;100.00;100398.31;7712216;23;20070;-95
2023/07/19 00:50:34;;;;;;;5.07;2.10;;;;;;;16.92;100.00;100391.66;7713350;23;20020;-95
2023/07/19 00:53:39;;;;;;;3.67;1.98;;;;;;;16.87;100.00;100376.47;7713330;23;20062;-94
2023/07/19 00:56:43;;;;;;;5.93;2.30;;;;;;;16.86;100.00;100377.41;7713169;23;20024;-94
2023/07/19 00:59:45;;;;;;;4.03;1.92;;;;;;;16.87;100.00;100379.06;7738509;23;20508;-96
2023/07/19 01:02:48;;;;;;;3.35;1.80;;;;;;;16.89;100.00;100377.09;7739571;23;20021;-95
2023/07/19 01:05:50;;;;;;;3.67;1.98;;;;;;;16.93;100.00;100377.59;7711522;23;20027;-95
2023/07/19 01:08:53;;;;;;;3.55;1.90;;;;;;;16.95;100.00;100373.81;7712817;23;20020;-95
2023/07/19 01:11:55;;;;;;;3.45;2.20;;;;;;;16.99;100.00;100372.50;7688850;23;20044;-95
2023/07/19 01:14:56;;;;;;;2.95;2.00;;;;;;;17.01;100.00;100374.94;7713767;23;20035;-94
2023/07/19 01:17:58;;;;;;;3.55;2.20;;;;;;;17.02;100.00;100368.75;7713392;23;20020;-95
2023/07/19 01:21:00;;;;;;;3.78;2.17;;;;;;;17.00;100.00;100373.31;7740558;23;20024;-95
2023/07/19 01:24:18;;;;;;;2.83;1.75;;;;;;;16.95;100.00;100367.78;7713601;23;20020;-95
2023/07/19 01:27:20;;;;;;;2.97;2.15;;;;;;;16.86;100.00;100366.97;7684785;23;20118;-95
2023/07/19 01:30:24;;;;;;;2.38;2.00;;;;;;;16.79;100.00;100366.00;7740412;23;20020;-95
2023/07/19 01:33:26;;;;;;;5.28;2.30;;;;;;;16.73;100.00;100364.03;7740294;23;20024;-95
2023/07/19 01:36:35;;;;;;;3.90;2.22;;;;;;;16.64;100.00;100350.13;7740388;23;20358;-95
2023/07/19 01:39:37;;;;;;;4.15;2.50;;;;;;;16.63;100.00;100352.94;7714223;23;20185;-95
2023/07/19 01:42:39;;;;;;;4.15;2.20;;;;;;;16.63;100.00;100348.50;7688017;23;20020;-95
2023/07/19 01:45:41;;;;;;;2.78;2.00;;;;;;;16.65;100.00;100349.16;7713852;23;20450;-94
2023/07/19 01:48:44;;;;;;;4.72;2.05;;;;;;;16.67;100.00;100352.44;7740529;23;20042;-94
2023/07/19 01:51:46;;;;;;;5.13;2.40;;;;;;;16.64;100.00;100357.16;7712865;23;20028;-95
2023/07/19 01:54:48;;;;;;;2.38;1.92;;;;;;;16.65;100.00;100348.34;7739573;23;20567;-95
2023/07/19 01:57:50;;;;;;;2.92;1.80;;;;;;;16.63;100.00;100352.94;7739272;23;20098;-95
2023/07/19 02:00:54;;;;;;;2.38;1.92;;;;;;;16.63;100.00;100353.72;7737692;23;20028;-95
2023/07/19 02:03:57;;;;;;;5.95;2.00;;;;;;;16.74;100.00;100340.34;7740180;23;20039;-94
2023/07/19 02:06:59;;;;;;;3.08;1.90;;;;;;;16.68;100.00;100348.81;7739957;23;20024;-94
2023/07/19 02:10:04;;;;;;;3.60;2.10;;;;;;;16.36;100.00;100340.03;7713009;23;20035;-95
2023/07/19 02:13:06;;;;;;;5.47;2.10;;;;;;;16.67;100.00;100333.31;7713477;23;20024;-95
2023/07/19 02:16:09;;;;;;;3.08;2.03;;;;;;;16.39;100.00;100331.03;7713443;23;20020;-95
2023/07/19 02:19:11;;;;;;;3.85;2.10;;;;;;;16.76;100.00;100335.75;7713018;23;20031;-94
2023/07/19 02:22:15;;;;;;;6.57;2.08;;;;;;;16.85;100.00;100328.75;7713421;23;20423;-95
2023/07/19 02:25:17;;;;;;;3.53;1.90;;;;;;;16.89;100.00;100335.25;7740697;23;20026;-95
2023/07/19 02:28:20;;;;;;;2.70;1.90;;;;;;;16.90;100.00;100326.44;7713666;23;20434;-94
2023/07/19 02:31:21;;;;;;;3.10;1.80;;;;;;;16.92;100.00;100318.44;7712968;23;20025;-95
2023/07/19 02:34:25;;;;;;;3.78;2.15;;;;;;;16.32;100.00;100322.22;7739067;23;20024;-95
2023/07/19 02:37:27;;;;;;;4.32;1.90;;;;;;;16.41;100.00;100321.25;7736786;23;20054;-95
2023/07/19 02:40:29;;;;;;;4.50;2.30;;;;;;;16.24;100.00;100322.22;7737533;23;20427;-95
2023/07/19 02:43:33;;;;;;;3.03;2.42;;;;;;;16.62;100.00;100320.75;7712457;23;20024;-94
2023/07/19 02:46:35;;;;;;;2.50;2.10;;;;;;;16.61;100.00;100321.72;7712728;23;20024;-95
2023/07/19 02:49:38;;;;;;;3.08;2.00;;;;;;;16.57;100.00;100317.78;7711661;23;20024;-95
2023/07/19 02:52:41;;;;;;;2.72;2.20;;;;;;;16.57;100.00;100326.47;7738783;23;20154;-95
2023/07/19 02:55:44;;;;;;;3.00;2.08;;;;;;;16.61;100.00;100324.34;7711575;23;20016;-95
2023/07/19 02:58:46;;;;;;;3.53;1.98;;;;;;;16.46;100.00;100318.16;7711410;23;20027;-94
2023/07/19 03:01:49;;;;;;;4.40;2.15;;;;;;;16.89;100.00;100311.72;7711174;23;20024;-96
2023/07/19 03:04:50;;;;;;;2.65;2.10;;;;;;;16.98;100.00;100305.50;7711149;23;20024;-95
2023/07/19 03:07:52;;;;;;;3.17;2.10;;;;;;;16.32;100.00;100296.94;7711107;23;20450;-95
2023/07/19 03:10:55;;;;;;;3.03;1.65;;;;;;;16.24;100.00;100298.72;7686081;23;20031;-95
2023/07/19 03:13:57;;;;;;;3.28;1.98;;;;;;;16.12;100.00;100309.50;7715074;23;20375;-95
2023/07/19 03:16:59;;;;;;;3.78;1.90;;;;;;;16.02;100.00;100306.22;7713808;23;20038;-95
2023/07/19 03:20:01;;;;;;;1.92;1.83;;;;;;;16.08;100.00;100312.59;7713743;23;20103;-94
2023/07/19 03:23:04;;;;;;;2.80;1.75;;;;;;;15.94;100.00;100321.88;7741839;23;20022;-94
2023/07/19 03:26:07;;;;;;;3.30;2.17;;;;;;;15.88;100.00;100314.72;7713726;23;20024;-95
2023/07/19 03:29:09;;;;;;;3.33;1.83;;;;;;;15.85;100.00;100312.38;7715094;23;20020;-95
2023/07/19 03:32:11;;;;;;;3.88;2.25;;;;;;;15.87;100.00;100313.06;7714777;23;20458;-94
2023/07/19 03:35:13;;;;;;;4.88;2.20;;;;;;;15.79;100.00;100302.59;7741265;23;20103;-96
2023/07/19 03:38:18;;;;;;;2.53;2.03;;;;;;;15.92;100.00;100313.38;7713813;23;20023;-95
2023/07/19 03:41:21;;;;;;;2.95;2.28;;;;;;;15.97;100.00;100305.88;7689544;23;20026;-95
2023/07/19 03:44:25;;;;;;;4.00;2.20;;;;;;;16.36;100.00;100293.00;7714796;23;20020;-94
2023/07/19 03:47:27;;;;;;;3.95;1.95;;;;;;;16.14;100.00;100306.72;7714231;23;20031;-94
2023/07/19 03:50:29;;;;;;;3.75;2.42;;;;;;;16.15;100.00;100301.34;7713952;23;20020;-94
2023/07/19 03:53:31;;;;;;;3.92;2.47;;;;;;;16.52;100.00;100300.03;7714044;23;20028;-95
2023/07/19 03:56:33;;;;;;;4.70;2.10;;;;;;;16.13;100.00;100297.25;7740133;23;20023;-94
2023/07/19 03:59:36;;;;;;;2.97;1.95;;;;;;;16.63;100.00;100298.84;7713781;23;20027;-95
2023/07/19 04:02:38;;;;;;;3.38;2.22;;;;;;;16.58;100.00;100290.69;7713873;23;20438;-94
2023/07/19 04:05:41;;;;;;;2.40;2.20;;;;;;;16.17;100.00;100284.69;7713970;23;20030;-94
2023/07/19 04:08:44;;;;;;;3.95;2.33;;;;;;;16.61;100.00;100286.94;7689189;23;20063;-95
2023/07/19 04:11:46;;;;;;;4.18;2.10;;;;;;;16.81;100.00;100282.19;7713449;23;20024;-95
2023/07/19 04:14:48;;;;;;;3.38;2.05;;;;;;;16.90;100.00;100284.59;7713444;23;20024;-95
2023/07/19 04:17:55;;;;;;;3.03;2.17;;;;;;;16.96;100.00;100283.09;7714442;23;20473;-95
2023/07/19 04:20:58;;;;;;;3.25;2.28;;;;;;;16.45;100.00;100285.19;7739268;23;20024;-95
2023/07/19 04:24:02;;;;;;;4.07;2.33;;;;;;;16.44;100.00;100286.13;7744254;23;20020;-95
2023/07/19 04:27:05;;;;;;;5.90;2.42;;;;;;;16.40;100.00;100283.06;7691952;23;20028;-95
2023/07/19 04:30:07;;;;;;;3.97;2.50;;;;;;;16.40;100.00;100284.81;7692654;23;20039;-95
2023/07/19 04:33:10;;;;;;;2.72;2.20;;;;;;;16.53;100.00;100290.38;7744236;23;20023;-95
2023/07/19 04:36:14;;;;;;;2.97;2.22;;;;;;;16.66;100.00;100287.25;7743883;23;20024;-95
2023/07/19 04:39:18;;;;;;;2.78;2.30;;;;;;;16.77;100.00;100286.91;7716390;23;20027;-95
2023/07/19 04:42:22;;;;;;;4.28;2.08;;;;;;;16.66;100.00;100276.78;7741759;23;20040;-95
2023/07/19 04:45:25;;;;;;;4.47;2.47;;;;;;;16.65;100.00;100285.63;7715710;23;20020;-95
2023/07/19 04:48:27;;;;;;;2.33;2.10;;;;;;;16.56;100.00;100276.97;7715570;23;20392;-95
2023/07/19 04:51:29;;;;;;;3.78;2.40;;;;;;;16.49;100.00;100273.41;7715428;23;20048;-96
2023/07/19 04:54:32;;;;;;;3.40;2.50;;;;;;;16.41;100.00;100279.44;7715717;23;20078;-95
2023/07/19 04:57:34;;;;;;;3.50;2.40;;;;;;;16.27;100.00;100280.09;7743097;23;20026;-95
2023/07/19 05:00:36;;;;;;;5.28;2.55;;;;;;;16.36;100.00;100276.53;7743569;23;20456;-95
2023/07/19 05:03:38;;;;;;;4.53;2.72;;;;;;;16.53;100.00;100278.13;7715886;23;20358;-95
2023/07/19 05:06:41;;;;;;;4.60;2.30;;;;;;;16.90;100.00;100283.81;7742551;23;20020;-95
2023/07/19 05:09:42;;;;;;;3.00;2.33;;;;;;;17.03;100.00;100278.84;7715171;23;20027;-95
2023/07/19 05:12:44;;;;;;;2.80;2.03;;;;;;;17.03;100.00;100271.00;7715751;23;20035;-95
2023/07/19 05:15:46;;;;;;;3.20;2.38;;;;;;;17.16;100.00;100280.91;7715838;23;20024;-95
2023/07/19 05:18:50;;;;;;;3.33;2.45;;;;;;;17.26;100.00;100281.50;7691597;23;20024;-95
2023/07/19 05:21:53;;;;;;;3.65;2.30;;;;;;;17.34;100.00;100276.25;7743404;23;20016;-95
2023/07/19 05:24:56;;;;;;;4.55;2.53;;;;;;;17.47;100.00;100272.28;7742416;23;20051;-95
2023/07/19 05:27:59;;;;;;;3.33;2.15;;;;;;;17.53;100.00;100276.81;7743010;23;20073;-95
2023/07/19 05:31:02;;;;;;;2.50;2.22;;;;;;;18.22;100.00;100274.22;7743911;23;20020;-96
2023/07/19 05:34:05;;;;;;;4.22;2.38;;;;;;;18.34;100.00;100270.19;7742824;23;20020;-95
2023/07/19 05:37:07;;;;;;;3.17;2.10;;;;;;;18.25;100.00;100266.81;7743153;23;20099;-95
2023/07/19 05:40:09;;;;;;;2.65;2.05;;;;;;;18.16;100.00;100267.88;7743832;23;20053;-95
2023/07/19 05:43:11;;;;;;;5.20;2.42;;;;;;;18.11;100.00;100270.22;7743304;23;20070;-95
2023/07/19 05:46:13;;;;;;;2.90;2.08;;;;;;;18.24;100.00;100262.56;7715924;23;20091;-96
2023/07/19 05:49:16;;;;;;;5.07;2.30;;;;;;;18.54;100.00;100272.28;7742838;23;20429;-95
2023/07/19 05:52:19;;;;;;;4.25;2.65;;;;;;;18.84;100.00;100273.13;7715628;23;20179;-95
2023/07/19 05:55:21;;;;;;;3.55;2.30;;;;;;;19.09;100.00;100276.28;7742475;23;20024;-96
2023/07/19 05:58:23;;;;;;;6.03;2.25;;;;;;;19.07;100.00;100278.28;7714723;23;20020;-95
2023/07/19 06:01:25;;;;;;;3.63;2.33;;;;;;;18.82;100.00;100273.31;7742526;23;20012;-95
2023/07/19 06:04:32;;;;;;;3.22;2.80;;;;;;;18.87;100.00;100273.56;7716560;23;20024;-95
2023/07/19 06:07:35;;;;;;;2.45;1.80;;;;;;;19.02;100.00;100272.75;7715629;23;20039;-96
2023/07/19 06:10:38;;;;;;;3.00;2.25;;;;;;;19.71;100.00;100280.25;7742471;23;20342;-96
2023/07/19 06:13:40;;;;;;;2.60;2.20;;;;;;;19.33;100.00;100275.16;7742293;23;20027;-96
2023/07/19 06:16:43;;;;;;;4.32;2.33;;;;;;;19.67;100.00;100289.44;7742187;23;20026;-95
2023/07/19 06:19:45;;;;;;;5.18;2.30;;;;;;;19.72;100.00;100287.09;7714942;23;20040;-95
2023/07/19 06:22:47;;;;;;;4.28;2.20;;;;;;;19.72;100.00;100281.84;7714681;23;20027;-95
2023/07/19 06:25:49;;;;;;;3.08;2.03;;;;;;;19.99;100.00;100281.09;7714479;23;20066;-95
2023/07/19 06:28:52;;;;;;;4.05;2.42;;;;;;;20.12;100.00;100280.41;7741800;23;20024;-96
2023/07/19 06:31:54;;;;;;;4.90;2.30;;;;;;;20.11;100.00;100280.59;7715117;23;20024;-96
2023/07/19 06:34:56;;;;;;;12.68;2.33;;;;;;;20.25;100.00;100282.34;7714972;23;20020;-96
2023/07/19 06:37:59;;;;;;;3.30;1.80;;;;;;;20.44;100.00;100281.66;7742589;23;20020;-96
2023/07/19 06:41:07;;;;;;;4.80;2.03;;;;;;;20.56;100.00;100284.59;7715515;23;20462;-95
2023/07/19 06:44:09;;;;;;;4.35;1.95;;;;;;;20.61;100.00;100281.41;7741610;23;20159;-96
2023/07/19 06:47:11;;;;;;;3.72;2.30;;;;;;;20.62;100.00;100290.91;7740567;23;20480;-95
2023/07/19 06:50:13;;;;;;;5.47;1.80;;;;;;;20.48;100.00;100278.66;7714421;23;20019;-96
2023/07/19 06:53:16;;;;;;;3.13;1.90;;;;;;;20.30;100.00;100287.84;7741578;23;20095;-96
2023/07/19 06:56:18;;;;;;;4.03;2.10;;;;;;;20.23;100.00;100286.97;7688764;23;20027;-95
2023/07/19 06:59:21;;;;;;;3.28;2.15;;;;;;;20.34;100.00;100286.44;7741085;23;20406;-96
2023/07/19 07:02:23;;;;;;;5.13;2.03;;;;;;;20.43;100.00;100290.56;7740760;23;20020;-96
2023/07/19 07:05:25;;;;;;;4.30;1.83;;;;;;;20.56;100.00;100284.59;7740147;23;20020;-95
2023/07/19 07:08:27;;;;;;;4.32;2.20;;;;;;;20.83;100.00;100287.38;7741506;23;20024;-95
2023/07/19 07:11:29;;;;;;;5.07;2.20;;;;;;;20.98;100.00;100282.81;7714850;23;20020;-96
2023/07/19 07:14:31;;;;;;;3.63;2.05;;;;;;;21.11;100.00;100276.78;7689975;23;20031;-95
2023/07/19 07:17:33;;;;;;;2.70;1.83;;;;;;;21.14;100.00;100280.84;7742005;23;20103;-95
2023/07/19 07:20:35;;;;;;;3.28;1.52;;;;;;;21.09;100.00;100278.78;7742056;23;20536;-95
2023/07/19 07:23:38;;;;;;;3.92;1.85;;;;;;;21.15;100.00;100279.84;7741181;23;20074;-95
2023/07/19 07:26:40;;;;;;;2.95;1.88;;;;;;;21.33;100.00;100292.47;7714965;23;20020;-96
2023/07/19 07:29:42;;;;;;;3.17;1.85;;;;;;;21.47;100.00;100296.81;7712752;23;20024;-95
2023/07/19 07:32:45;;;;;;;3.05;2.00;;;;;;;21.58;100.00;100284.88;7741669;23;20016;-95
2023/07/19 07:35:47;;;;;;;2.53;1.70;;;;;;;21.63;100.00;100288.53;7741625;23;20020;-96
2023/07/19 07:38:49;;;;;;;2.40;1.75;;;;;;;21.57;100.00;100294.59;7714989;23;20024;-95
2023/07/19 07:41:51;;;;;;;3.72;2.00;;;;;;;21.56;100.00;100279.00;7740444;23;20024;-95
2023/07/19 07:44:53;;;;;;;3.40;1.92;;;;;;;21.56;100.00;100289.53;7741805;23;20024;-95
2023/07/19 07:47:55;;;;;;;4.93;1.90;;;;;;;21.50;100.00;100297.22;7741614;23;20024;-95
2023/07/19 07:50:58;;;;;;;3.65;1.65;;;;;;;21.35;100.00;100299.16;7741870;23;20016;-92
2023/07/19 07:54:00;;;;;;;3.55;1.90;;;;;;;21.34;100.00;100296.72;7714614;23;20020;-93
2023/07/19 07:57:05;;;;;;;1.60;1.50;;;;;;;21.73;100.00;100291.59;7741098;23;20024;-96
2023/07/19 08:00:11;;;;;;;2.75;1.60;;;;;;;22.34;100.00;100293.28;7739297;23;20460;-96
2023/07/19 08:03:14;;;;;;;4.18;1.83;;;;;;;22.67;100.00;100291.59;7714685;23;20462;-94
2023/07/19 08:06:16;;;;;;;3.22;1.40;;;;;;;22.68;100.00;100285.31;7741693;23;20050;-94
2023/07/19 08:09:18;;;;;;;3.00;1.80;;;;;;;22.54;100.00;100279.25;7714648;23;20314;-93
2023/07/19 08:12:24;;;;;;;6.68;1.98;;;;;;;22.28;100.00;100285.34;7741446;23;20099;-95
2023/07/19 08:15:26;;;;;;;5.28;1.95;;;;;;;22.05;100.00;100286.56;7714073;23;20450;-94
2023/07/19 08:18:29;;;;;;;2.90;1.90;;;;;;;21.84;100.00;100292.03;7741771;23;20027;-92
2023/07/19 08:21:31;;;;;;;2.53;1.70;;;;;;;21.69;100.00;100303.56;7714919;23;20016;-95
2023/07/19 08:24:38;;;;;;;2.95;1.80;;;;;;;21.85;100.00;100293.63;7742169;23;20103;-96
2023/07/19 08:27:41;;;;;;;2.17;1.80;;;;;;;22.04;100.00;100300.75;7741197;23;20027;-96
2023/07/19 08:30:43;;;;;;;5.15;1.98;;;;;;;22.13;100.00;100294.25;7741435;23;20458;-95
2023/07/19 08:33:45;;;;;;;8.07;2.20;;;;;;;22.20;100.00;100290.84;7714745;23;20461;-96
2023/07/19 08:36:47;;;;;;;2.50;1.70;;;;;;;22.43;100.00;100290.41;7713957;23;20020;-95
2023/07/19 08:39:49;;;;;;;3.63;1.90;;;;;;;22.70;100.00;100286.72;7740986;23;20024;-94
2023/07/19 08:42:51;;;;;;;3.90;1.98;;;;;;;22.73;100.00;100291.59;7713915;23;20231;-92
2023/07/19 08:45:55;;;;;;;5.07;2.40;;;;;;;22.56;100.00;100285.94;7714004;23;20024;-94
2023/07/19 08:48:58;;;;;;;4.22;2.15;;;;;;;22.48;100.00;100288.78;7714817;23;20070;-95
2023/07/19 08:52:07;;;;;;;4.53;2.22;;;;;;;22.42;100.00;100288.81;7714638;23;20016;-95
2023/07/19 08:55:10;;;;;;;5.07;2.30;;;;;;;22.35;100.00;100286.16;7715113;23;20452;-96
2023/07/19 08:58:11;;;;;;;4.47;2.13;;;;;;;22.07;100.00;100291.63;7713960;23;20028;-95
2023/07/19 09:01:14;;;;;;;4.20;2.45;;;;;;;21.92;100.00;100283.91;7741680;23;20147;-96
2023/07/19 09:04:16;;;;;;;6.95;2.42;;;;;;;21.91;100.00;100291.03;7741710;23;20016;-96
2023/07/19 09:07:18;;;;;;;5.47;2.35;;;;;;;21.82;100.00;100288.78;7741740;23;20016;-96
2023/07/19 09:10:20;;;;;;;4.22;2.30;;;;;;;21.83;100.00;100279.84;7743152;23;20023;-96
2023/07/19 09:13:22;;;;;;;3.42;2.40;;;;;;;21.41;100.00;100282.59;7743325;23;20025;-91
2023/07/19 09:16:35;;;;;;;5.38;2.25;;;;;;;21.29;100.00;100273.59;7744036;23;20043;-95
2023/07/19 09:19:42;;;;;;;3.70;2.33;;;;;;;21.27;100.00;100276.44;7743118;23;20095;-95
2023/07/19 09:22:45;;;;;;;4.57;2.10;;;;;;;21.27;100.00;100280.91;7716107;23;20024;-94
2023/07/19 09:25:55;;;;;;;4.03;2.35;;;;;;;21.37;100.00;100283.19;7743513;23;20046;-94
2023/07/19 09:28:57;;;;;;;4.93;2.45;;;;;;;21.41;100.00;100276.53;7716675;23;20024;-95
2023/07/19 09:32:01;;;;;;;4.78;2.25;;;;;;;21.56;100.00;100281.63;7716320;23;20039;-95
2023/07/19 09:35:05;;;;;;;4.22;2.15;;;;;;;21.61;100.00;100282.63;7716211;23;20023;-93
2023/07/19 09:38:06;;;;;;;5.82;2.42;;;;;;;21.78;100.00;100271.72;7715456;23;20024;-94
2023/07/19 09:41:08;;;;;;;3.97;1.85;;;;;;;21.89;100.00;100257.97;7743087;23;20034;-91
2023/07/19 09:44:11;;;;;;;4.30;2.70;;;;;;;21.98;100.00;100259.38;7742930;23;20508;-94
2023/07/19 09:47:14;;;;;;;4.95;1.98;;;;;;;22.20;100.00;100269.75;7691047;23;20032;-96
2023/07/19 09:50:31;;;;;;;7.82;2.55;;;;;;;22.30;100.00;100260.41;7743266;23;20306;-94
2023/07/19 09:53:37;;;;;;;6.05;2.10;;;;;;;22.16;100.00;100264.06;7742555;23;20030;-91
2023/07/19 09:56:40;;;;;;;4.70;1.85;;;;;;;22.21;100.00;100255.53;7743452;23;20044;-92
2023/07/19 09:59:50;;;;;;;4.07;1.60;;;;;;;22.29;100.00;100253.53;7742656;23;20085;-94
2023/07/19 10:02:52;;;;;;;4.60;1.67;;;;;;;22.39;100.00;100252.31;7715491;23;20031;-94
2023/07/19 10:05:56;;;;;;;4.22;1.85;;;;;;;22.55;100.00;100263.22;7742580;23;20020;-92
2023/07/19 10:09:24;;;;;;;5.07;1.70;;;;;;;22.57;100.00;100258.53;7690791;23;20034;-92
2023/07/19 10:12:26;;;;;;;4.30;1.40;;;;;;;22.61;100.00;100258.94;7715067;23;20028;-90
2023/07/19 10:15:29;;;;;;;3.92;1.38;;;;;;;22.72;100.00;100254.84;7741705;23;20469;-92
2023/07/19 10:18:33;;;;;;;3.50;1.50;;;;;;;22.78;100.00;100259.28;7741972;23;20044;-89
2023/07/19 10:21:36;;;;;;;3.50;1.25;;;;;;;22.96;100.00;100263.91;7741714;23;20020;-90
2023/07/19 10:24:38;;;;;;;5.15;1.70;;;;;;;23.12;100.00;100258.19;7742446;23;20023;-92
2023/07/19 10:27:40;;;;;;;3.30;1.20;;;;;;;23.38;100.00;100254.59;7690205;23;20028;-89
2023/07/19 10:30:49;;;;;;;4.10;1.45;;;;;;;23.50;100.00;100254.72;7742243;23;20020;-92
2023/07/19 10:33:54;;;;;;;7.75;2.20;;;;;;;23.42;100.00;100258.44;7714777;23;20024;-90
2023/07/19 10:37:06;;;;;;;2.15;1.60;;;;;;;23.48;100.00;100250.66;7742285;23;20039;-93
2023/07/19 10:40:09;;;;;;;4.93;1.48;;;;;;;23.60;100.00;100249.81;7742955;23;20735;-92
2023/07/19 10:43:11;;;;;;;2.10;1.27;;;;;;;23.62;100.00;100260.94;7716302;23;20020;-89
2023/07/19 10:46:13;;;;;;;4.28;1.25;;;;;;;23.75;100.00;100246.06;7742622;23;20024;-91
2023/07/19 10:49:16;;;;;;;2.50;1.40;;;;;;;23.79;100.00;100248.06;7742487;23;20020;-89
2023/07/19 10:52:21;;;;;;;3.83;1.40;;;;;;;23.99;100.00;100255.03;7741835;23;20024;-92
2023/07/19 10:55:23;;;;;;;2.03;1.30;;;;;;;24.42;100.00;100246.28;7716093;23;20095;-91
2023/07/19 10:58:45;;;;;;;3.17;1.23;;;;;;;24.59;100.00;100244.69;7742361;23;20324;-92
2023/07/19 11:01:48;;;;;;;4.78;1.60;;;;;;;24.81;100.00;100250.38;7715279;23;20020;-91
2023/07/19 11:04:50;;;;;;;3.90;1.45;;;;;;;24.75;100.00;100238.03;7741730;23;20020;-93
2023/07/19 11:07:52;;;;;;;2.60;1.10;;;;;;;24.91;100.00;100249.84;7714876;23;20459;-89
2023/07/19 11:10:56;;;;;;;1.70;1.20;;;;;;;25.06;97.24;100242.31;7742673;23;20020;-90
2023/07/19 11:13:58;;;;;;;2.47;1.20;;;;;;;25.12;100.00;100244.09;7742241;23;20447;-93
2023/07/19 11:17:00;;;;;;;2.17;1.50;;;;;;;25.03;100.00;100234.03;7714649;23;20103;-95
2023/07/19 11:20:06;;;;;;;1.70;1.30;;;;;;;24.96;100.00;100236.75;7715764;23;20043;-93
2023/07/19 11:23:08;;;;;;;2.05;1.13;;;;;;;24.69;100.00;100237.09;7742297;23;20111;-93
2023/07/19 11:26:12;;;;;;;6.25;1.70;;;;;;;24.69;100.00;100231.78;7714416;23;20016;-92
2023/07/19 11:29:13;;;;;;;2.17;1.15;;;;;;;24.89;100.00;100230.72;7741888;23;20382;-93
2023/07/19 11:32:23;;;;;;;5.35;1.30;;;;;;;24.61;100.00;100229.41;7713908;23;20480;-93
2023/07/19 11:35:28;;;;;;;2.28;1.27;;;;;;;24.46;100.00;100221.84;7741631;23;20024;-92
2023/07/19 11:38:33;;;;;;;5.22;1.77;;;;;;;24.44;100.00;100215.91;7741868;23;20020;-94
2023/07/19 11:41:35;;;;;;;5.82;1.77;;;;;;;24.36;100.00;100216.22;7714587;23;20133;-94
2023/07/19 11:44:44;;;;;;;6.03;1.50;;;;;;;24.32;100.00;100220.31;7741096;23;20016;-91
2023/07/19 11:47:51;;;;;;;1.58;1.38;;;;;;;24.39;100.00;100221.06;7714947;23;20020;-92
2023/07/19 11:50:54;;;;;;;3.38;1.27;;;;;;;24.38;100.00;100213.38;7714761;23;20030;-93
2023/07/19 11:53:56;;;;;;;2.90;1.48;;;;;;;24.47;100.00;100220.00;7715506;23;20020;-92
2023/07/19 11:57:01;;;;;;;3.20;1.10;;;;;;;24.46;100.00;100221.03;7741915;23;20027;-94
2023/07/19 12:00:03;;;;;;;5.18;1.45;;;;;;;24.73;100.00;100218.09;7741339;23;20371;-94
2023/07/19 12:03:05;;;;;;;2.60;1.50;;;;;;;25.11;100.00;100215.97;7740991;23;20075;-91
2023/07/19 12:06:08;;;;;;;2.72;1.35;;;;;;;25.29;97.59;100220.44;7742241;23;20023;-95
2023/07/19 12:09:12;;;;;;;2.47;1.70;;;;;;;25.45;98.71;100218.19;7714930;23;20028;-92
2023/07/19 12:12:14;;;;;;;5.38;1.50;;;;;;;25.57;94.00;100206.56;7742022;23;20788;-93
2023/07/19 12:15:17;;;;;;;4.25;1.42;;;;;;;25.93;94.79;100220.69;7741229;23;20159;-91
2023/07/19 12:18:20;;;;;;;3.17;1.23;;;;;;;26.14;92.11;100213.22;7742037;23;20012;-93
2023/07/19 12:21:23;;;;;;;4.47;1.40;;;;;;;26.17;93.01;100212.75;7715180;23;20020;-94
2023/07/19 12:24:26;;;;;;;4.45;1.40;;;;;;;26.47;88.94;100206.47;7741761;23;20087;-93
2023/07/19 12:27:28;;;;;;;2.58;1.60;;;;;;;26.95;87.24;100215.94;7714758;23;20482;-93
2023/07/19 12:30:30;;;;;;;2.88;1.05;;;;;;;26.81;82.26;100199.50;7713274;23;20028;-89
2023/07/19 12:33:32;;;;;;;6.00;1.63;;;;;;;26.58;82.04;100203.84;7741068;23;20762;-94
2023/07/19 12:36:34;;;;;;;6.03;1.33;;;;;;;26.15;84.00;100194.41;7741556;23;20020;-94
2023/07/19 12:39:40;;;;;;;1.65;1.05;;;;;;;25.86;87.17;100193.47;7710639;23;20016;-94
2023/07/19 12:42:42;;;;;;;1.70;1.30;;;;;;;25.84;90.53;100197.34;7739990;23;20346;-92
2023/07/19 12:45:44;;;;;;;3.38;1.30;;;;;;;25.79;90.79;100192.78;7742143;23;20405;-93
2023/07/19 12:48:48;;;;;;;2.13;1.25;;;;;;;26.08;90.69;100195.56;7715677;23;20031;-92
2023/07/19 12:51:50;;;;;;;1.45;1.10;;;;;;;26.20;88.96;100197.16;7743443;23;20394;-93
2023/07/19 12:54:52;;;;;;;4.50;1.30;;;;;;;26.30;87.89;100203.72;7716406;23;20027;-92
2023/07/19 12:57:55;;;;;;;1.60;1.30;;;;;;;26.80;85.62;100193.34;7743727;23;20462;-93
2023/07/19 13:00:57;;;;;;;2.58;1.23;;;;;;;27.13;79.61;100196.34;7715485;23;20020;-89
2023/07/19 13:04:00;;;;;;;1.83;1.10;;;;;;;27.44;79.93;100195.06;7743916;23;20036;-91
2023/07/19 13:07:03;;;;;;;4.43;1.13;;;;;;;27.26;75.24;100193.44;7742933;23;20020;-93
2023/07/19 13:10:05;;;;;;;3.28;1.48;;;;;;;26.54;82.04;100185.94;7743152;23;20476;-93
2023/07/19 13:13:07;;;;;;;1.80;1.10;;;;;;;26.06;84.67;100173.75;7743197;23;20020;-93
2023/07/19 13:16:10;;;;;;;2.78;1.50;;;;;;;26.24;87.54;100178.94;7715919;23;20564;-90
2023/07/19 13:19:13;;;;;;;2.90;1.20;;;;;;;26.65;86.37;100187.75;7741020;23;20036;-92
2023/07/19 13:22:16;;;;;;;2.90;1.38;;;;;;;26.56;82.08;100181.22;7716041;23;20031;-91
2023/07/19 13:25:18;;;;;;;1.83;1.10;;;;;;;26.55;80.92;100169.78;7715122;23;20024;-93
2023/07/19 13:28:21;;;;;;;3.63;1.75;;;;;;;26.74;85.80;100178.38;7715673;23;20484;-91
2023/07/19 13:31:24;;;;;;;3.70;1.20;;;;;;;27.30;83.84;100181.25;7742303;23;20020;-93
2023/07/19 13:34:29;;;;;;;3.05;1.38;;;;;;;27.74;77.38;100181.41;7691165;23;20078;-92
2023/07/19 13:37:31;;;;;;;10.13;1.80;;;;;;;27.73;75.39;100174.50;7742654;23;20343;-93
2023/07/19 13:40:36;;;;;;;5.72;1.70;;;;;;;27.62;75.07;100178.03;7743384;23;20020;-90
2023/07/19 13:43:38;;;;;;;5.00;1.40;;;;;;;27.03;79.59;100175.69;7741996;23;20040;-92
2023/07/19 13:46:40;;;;;;;5.18;1.50;;;;;;;26.66;80.50;100170.78;7716054;23;20025;-94
2023/07/19 13:49:43;;;;;;;2.95;1.40;;;;;;;26.56;81.98;100170.59;7715239;23;20027;-93
2023/07/19 13:52:45;;;;;;;2.28;1.27;;;;;;;26.75;84.99;100172.00;7715268;23;20348;-92
2023/07/19 13:55:47;;;;;;;2.17;1.30;;;;;;;26.79;83.16;100170.50;7742125;23;20050;-93
2023/07/19 13:58:49;;;;;;;2.65;1.15;;;;;;;27.04;83.10;100174.69;7715277;23;20023;-95
2023/07/19 14:01:51;;;;;;;2.72;1.58;;;;;;;27.86;83.10;100176.84;7742025;23;20012;-93
2023/07/19 14:04:53;;;;;;;2.95;1.30;;;;;;;28.39;77.84;100168.47;7742716;23;20081;-94